Time;durP1;ratioP1;P1;durP2;ratioP2;P2;SDS_P1;SDS_P2;PMS_P1;PMS_P2;Temp;Humidity;BMP_temperature;BMP_pressure;BME280_temperature;BME280_humidity;BME280_pressure;Samples;Min_cycle;Max_cycle;Signal;HPM_P1;HPM_P2
2023/04/30 00:02:07;;;;;;;12.32;11.02;;;;;;;7.03;100.00;102129.47;4904132;28;20028;-75
2023/04/30 00:04:32;;;;;;;12.60;11.40;;;;;;;6.96;99.99;102128.66;4904639;28;20630;-75
2023/04/30 00:06:57;;;;;;;13.63;11.40;;;;;;;6.91;100.00;102126.09;4913906;28;20400;-74
2023/04/30 00:09:23;;;;;;;13.70;10.75;;;;;;;6.92;100.00;102127.81;4902758;28;20036;-75
2023/04/30 00:11:48;;;;;;;13.43;11.35;;;;;;;6.91;100.00;102130.50;4904773;28;20034;-74
2023/04/30 00:14:14;;;;;;;12.38;11.07;;;;;;;6.90;100.00;102134.94;4903977;28;20534;-75
2023/04/30 00:16:39;;;;;;;14.45;12.57;;;;;;;6.88;100.00;102130.53;4903704;28;20503;-73
2023/04/30 00:19:05;;;;;;;13.70;10.80;;;;;;;6.84;100.00;102120.91;4924202;28;20630;-75
2023/04/30 00:21:30;;;;;;;15.65;11.82;;;;;;;6.88;100.00;102138.50;4920157;28;20030;-74
2023/04/30 00:23:56;;;;;;;15.52;11.60;;;;;;;6.84;100.00;102136.78;4924193;28;20660;-73
2023/04/30 00:26:21;;;;;;;13.20;11.82;;;;;;;6.80;100.00;102141.25;4905231;28;20454;-74
2023/04/30 00:28:47;;;;;;;14.65;11.38;;;;;;;6.71;100.00;102134.31;4900866;29;20020;-73
2023/04/30 00:31:12;;;;;;;14.13;11.63;;;;;;;6.71;100.00;102138.72;4916426;29;20032;-74
2023/04/30 00:33:38;;;;;;;17.92;12.80;;;;;;;6.69;100.00;102140.53;4915620;28;20041;-74
2023/04/30 00:36:04;;;;;;;14.18;12.70;;;;;;;6.70;100.00;102137.88;4921455;28;20190;-73
2023/04/30 00:38:29;;;;;;;15.23;12.27;;;;;;;6.65;100.00;102133.53;4902788;28;20040;-74
2023/04/30 00:40:54;;;;;;;16.33;12.70;;;;;;;6.61;100.00;102139.78;4920262;28;20031;-73
2023/04/30 00:43:20;;;;;;;13.63;11.93;;;;;;;6.62;100.00;102146.81;4921503;28;20131;-74
2023/04/30 00:45:45;;;;;;;14.45;12.68;;;;;;;6.56;100.00;102138.94;4918616;29;20032;-73
2023/04/30 00:48:11;;;;;;;16.13;13.60;;;;;;;6.53;100.00;102139.88;4905437;28;20383;-73
2023/04/30 00:50:37;;;;;;;15.35;12.85;;;;;;;6.47;100.00;102140.81;4907658;28;20059;-74
2023/04/30 00:53:02;;;;;;;17.23;14.52;;;;;;;6.47;100.00;102143.44;4941188;28;20352;-73
2023/04/30 00:55:28;;;;;;;15.30;13.15;;;;;;;6.42;100.00;102140.00;4905680;29;20048;-74
2023/04/30 00:57:54;;;;;;;15.57;13.18;;;;;;;6.35;100.00;102137.44;4923105;28;20028;-74
2023/04/30 01:00:19;;;;;;;15.93;13.13;;;;;;;6.30;100.00;102129.56;4907460;28;20376;-73
2023/04/30 01:02:44;;;;;;;16.20;13.48;;;;;;;6.28;100.00;102122.56;4919029;28;20456;-73
2023/04/30 01:05:10;;;;;;;15.55;13.40;;;;;;;6.29;100.00;102124.31;4905586;28;20389;-73
2023/04/30 01:07:43;;;;;;;15.82;13.82;;;;;;;6.21;100.00;102132.34;4904327;28;20028;-74
2023/04/30 01:10:11;;;;;;;15.02;13.38;;;;;;;6.21;100.00;102122.63;4906597;28;20328;-75
2023/04/30 01:13:02;;;;;;;15.60;14.00;;;;;;;6.21;100.00;102125.28;4906006;28;20024;-73
2023/04/30 01:15:37;;;;;;;15.00;12.85;;;;;;;6.19;100.00;102128.84;4904306;29;20335;-73
2023/04/30 01:18:16;;;;;;;14.82;13.32;;;;;;;6.14;100.00;102120.94;4906486;28;20504;-73
2023/04/30 01:20:52;;;;;;;17.23;13.95;;;;;;;6.11;100.00;102125.44;4906549;28;20471;-73
2023/04/30 01:23:51;;;;;;;15.88;13.90;;;;;;;6.11;100.00;102114.84;4906853;28;20259;-73
2023/04/30 01:26:39;;;;;;;15.65;13.73;;;;;;;6.09;100.00;102127.19;4923671;28;20091;-73
2023/04/30 01:29:04;;;;;;;15.60;13.80;;;;;;;6.03;100.00;102122.00;4904521;28;20029;-74
2023/04/30 01:31:30;;;;;;;17.00;13.85;;;;;;;6.05;100.00;102120.19;4917763;28;20418;-74
2023/04/30 01:33:55;;;;;;;18.20;14.55;;;;;;;6.00;100.00;102117.59;4925337;28;20365;-74
2023/04/30 01:36:26;;;;;;;17.60;14.82;;;;;;;6.00;100.00;102117.59;4903681;29;20046;-73
2023/04/30 01:39:07;;;;;;;18.13;13.98;;;;;;;5.98;100.00;102130.84;4904835;29;20024;-73
2023/04/30 01:42:12;;;;;;;15.80;14.00;;;;;;;5.98;100.00;102122.06;4904930;28;20025;-75
2023/04/30 01:44:56;;;;;;;14.80;12.85;;;;;;;5.95;100.00;102122.94;4903951;29;20059;-73
2023/04/30 01:47:47;;;;;;;16.02;14.32;;;;;;;5.95;100.00;102122.94;4904694;28;20304;-72
2023/04/30 01:50:58;;;;;;;15.50;13.95;;;;;;;5.92;100.00;102120.34;4903560;28;20051;-74
2023/04/30 01:53:31;;;;;;;15.70;14.02;;;;;;;5.92;100.00;102116.81;4898932;29;20090;-72
2023/04/30 01:56:03;;;;;;;16.88;13.82;;;;;;;5.87;100.00;102122.13;4903966;28;20582;-73
2023/04/30 01:58:29;;;;;;;15.80;14.15;;;;;;;5.80;100.00;102115.16;4917779;29;20131;-74
2023/04/30 02:00:54;;;;;;;16.10;14.32;;;;;;;5.78;100.00;102126.63;4904070;28;20075;-74
2023/04/30 02:03:20;;;;;;;17.20;14.70;;;;;;;5.74;100.00;102125.78;4903637;29;20040;-75
2023/04/30 02:05:46;;;;;;;16.40;14.52;;;;;;;5.77;100.00;102130.16;4908460;28;20063;-74
2023/04/30 02:08:11;;;;;;;17.10;15.30;;;;;;;5.72;100.00;102127.56;4904586;28;20451;-74
2023/04/30 02:10:37;;;;;;;15.77;14.27;;;;;;;5.68;100.00;102131.13;4904664;28;20016;-74
2023/04/30 02:13:02;;;;;;;16.73;14.70;;;;;;;5.63;100.00;102127.66;4904881;28;20340;-74
2023/04/30 02:15:27;;;;;;;17.90;15.40;;;;;;;5.62;100.00;102133.84;4902486;28;20024;-74
2023/04/30 02:17:53;;;;;;;17.85;15.95;;;;;;;5.59;100.00;102126.81;4906602;28;20408;-74
2023/04/30 02:20:18;;;;;;;17.80;15.68;;;;;;;5.57;100.00;102133.00;4904062;28;20083;-73
2023/04/30 02:22:44;;;;;;;20.80;16.00;;;;;;;5.57;100.00;102128.59;4928428;28;20457;-74
2023/04/30 02:25:11;;;;;;;19.52;15.85;;;;;;;5.57;100.00;102138.28;4902974;28;20274;-75
2023/04/30 02:27:36;;;;;;;17.42;15.40;;;;;;;5.56;100.00;102133.88;4900687;28;20075;-74
2023/04/30 02:30:03;;;;;;;18.73;16.20;;;;;;;5.49;100.00;102128.66;4902700;28;20048;-74
2023/04/30 02:32:28;;;;;;;17.83;15.93;;;;;;;5.48;100.00;102121.66;4899452;28;20095;-73
2023/04/30 02:34:54;;;;;;;19.17;15.70;;;;;;;5.50;100.00;102137.47;4903970;28;20044;-73
2023/04/30 02:37:19;;;;;;;17.38;15.57;;;;;;;5.41;100.00;102119.94;4916441;28;20107;-74
2023/04/30 02:39:45;;;;;;;18.30;15.80;;;;;;;5.46;100.00;102131.34;4927547;28;20143;-75
2023/04/30 02:42:10;;;;;;;17.95;15.80;;;;;;;5.43;100.00;102130.47;4911254;28;20484;-73
2023/04/30 02:44:35;;;;;;;19.95;16.20;;;;;;;5.38;100.00;102133.16;4924893;28;20450;-74
2023/04/30 02:47:01;;;;;;;18.05;16.15;;;;;;;5.40;100.00;102141.09;4902339;28;20032;-75
2023/04/30 02:49:27;;;;;;;17.88;15.50;;;;;;;5.33;100.00;102134.97;4903973;28;20098;-74
2023/04/30 02:51:53;;;;;;;17.85;15.52;;;;;;;5.31;100.00;102138.50;4906455;28;20404;-73
2023/04/30 02:54:18;;;;;;;18.75;16.75;;;;;;;5.32;100.00;102132.34;4906679;28;20488;-74
2023/04/30 02:56:44;;;;;;;19.25;16.05;;;;;;;5.32;100.00;102133.22;4924673;28;20077;-73
2023/04/30 02:59:09;;;;;;;18.20;16.27;;;;;;;5.30;100.00;102129.72;4917814;28;20458;-73
2023/04/30 03:01:35;;;;;;;17.10;15.40;;;;;;;5.29;100.00;102129.75;4922800;28;20061;-73
2023/04/30 03:04:02;;;;;;;18.27;16.27;;;;;;;5.28;100.00;102133.28;4908800;28;20044;-74
2023/04/30 03:06:28;;;;;;;19.35;16.60;;;;;;;5.24;100.00;102135.94;4905872;28;20063;-74
2023/04/30 03:08:53;;;;;;;17.98;16.00;;;;;;;5.21;100.00;102125.38;4904965;28;20063;-72
2023/04/30 03:11:19;;;;;;;19.15;17.15;;;;;;;5.18;100.00;102120.16;4913818;28;20032;-75
2023/04/30 03:13:45;;;;;;;18.55;16.40;;;;;;;5.19;100.00;102124.53;4913133;28;20352;-75
2023/04/30 03:16:10;;;;;;;18.92;16.73;;;;;;;5.14;100.00;102123.72;4902583;28;20032;-74
2023/04/30 03:18:36;;;;;;;20.10;17.02;;;;;;;5.13;100.00;102115.78;4905418;28;20042;-74
2023/04/30 03:21:01;;;;;;;18.38;16.38;;;;;;;5.08;100.00;102113.19;4902898;28;20077;-74
2023/04/30 03:23:27;;;;;;;18.88;15.77;;;;;;;5.06;100.00;102111.44;4902387;28;20034;-76
2023/04/30 03:25:53;;;;;;;19.05;17.15;;;;;;;5.09;100.00;102121.97;4901657;28;20024;-73
2023/04/30 03:28:18;;;;;;;18.45;16.38;;;;;;;5.04;100.00;102115.88;4911179;28;20036;-72
2023/04/30 03:30:44;;;;;;;17.45;15.63;;;;;;;5.03;100.00;102116.75;4909019;28;20389;-74
2023/04/30 03:33:09;;;;;;;20.73;17.48;;;;;;;4.92;100.00;102109.78;4903259;28;20162;-74
2023/04/30 03:35:34;;;;;;;18.77;16.77;;;;;;;4.96;100.00;102113.28;4902564;28;20158;-74
2023/04/30 03:38:00;;;;;;;20.55;17.55;;;;;;;4.95;100.00;102114.16;4902234;28;20159;-74
2023/04/30 03:40:26;;;;;;;19.42;17.58;;;;;;;4.91;100.00;102113.31;4919328;28;20070;-73
2023/04/30 03:42:52;;;;;;;20.80;18.58;;;;;;;4.92;100.00;102112.41;4904170;28;20035;-74
2023/04/30 03:45:18;;;;;;;20.17;17.88;;;;;;;4.90;100.00;102115.97;4908338;28;20036;-74
2023/04/30 03:47:44;;;;;;;20.52;18.00;;;;;;;4.87;100.00;102123.91;4895854;28;20035;-74
2023/04/30 03:50:10;;;;;;;18.77;16.83;;;;;;;4.76;100.00;102121.31;4908840;28;20057;-74
2023/04/30 03:52:36;;;;;;;18.33;16.35;;;;;;;4.70;100.00;102118.72;4902777;28;20492;-73
2023/04/30 03:55:02;;;;;;;17.50;15.80;;;;;;;4.70;100.00;102116.97;4903110;28;20059;-73
2023/04/30 03:57:28;;;;;;;18.85;16.90;;;;;;;4.67;100.00;102129.28;4900986;28;20575;-74
2023/04/30 03:59:53;;;;;;;19.42;17.30;;;;;;;4.67;100.00;102122.25;4901121;28;20119;-75
2023/04/30 04:02:20;;;;;;;19.15;17.02;;;;;;;4.64;100.00;102126.66;4902196;28;20032;-74
2023/04/30 04:04:46;;;;;;;23.52;17.73;;;;;;;4.62;100.00;102128.44;4936044;28;20043;-74
2023/04/30 04:07:11;;;;;;;20.35;18.20;;;;;;;4.63;100.00;102138.97;4900721;28;20044;-73
2023/04/30 04:09:37;;;;;;;20.73;18.50;;;;;;;4.57;100.00;102132.88;4901515;28;20032;-74
2023/04/30 04:12:02;;;;;;;21.88;19.38;;;;;;;4.51;100.00;102133.78;4901129;28;20147;-74
2023/04/30 04:14:28;;;;;;;21.83;19.50;;;;;;;4.47;100.00;102130.28;4905552;28;20074;-74
2023/04/30 04:16:53;;;;;;;22.65;20.35;;;;;;;4.51;100.00;102141.69;4903401;28;20032;-73
2023/04/30 04:19:19;;;;;;;24.17;20.73;;;;;;;4.55;100.00;102139.91;4898198;28;20114;-73
2023/04/30 04:21:44;;;;;;;23.58;20.95;;;;;;;4.53;100.00;102145.19;4899505;28;20137;-72
2023/04/30 04:24:10;;;;;;;26.17;20.95;;;;;;;4.53;100.00;102147.84;4898710;28;20070;-74
2023/04/30 04:26:36;;;;;;;23.75;21.25;;;;;;;4.54;100.00;102143.44;4910320;28;20184;-74
2023/04/30 04:29:04;;;;;;;22.10;19.85;;;;;;;4.57;100.00;102152.22;4899766;28;20039;-74
2023/04/30 04:31:30;;;;;;;23.90;21.30;;;;;;;4.53;100.00;102139.94;4899694;28;20035;-74
2023/04/30 04:33:59;;;;;;;22.77;20.30;;;;;;;4.53;100.00;102146.97;4896954;29;20028;-73
2023/04/30 04:36:26;;;;;;;22.90;20.52;;;;;;;4.58;100.00;102148.69;4905254;28;20028;-74
2023/04/30 04:38:53;;;;;;;23.95;20.55;;;;;;;4.59;100.00;102144.28;4901832;28;20035;-73
2023/04/30 04:41:18;;;;;;;24.58;21.95;;;;;;;4.58;100.00;102147.81;4903484;28;20024;-73
2023/04/30 04:43:44;;;;;;;23.20;20.70;;;;;;;4.58;100.00;102158.34;4906277;28;20396;-73
2023/04/30 04:46:10;;;;;;;23.10;20.65;;;;;;;4.58;100.00;102148.69;4901219;28;20032;-74
2023/04/30 04:48:35;;;;;;;23.20;20.70;;;;;;;4.60;100.00;102153.94;4902085;28;20386;-74
2023/04/30 04:51:00;;;;;;;24.05;21.38;;;;;;;4.64;100.00;102166.22;4908739;28;20063;-73
2023/04/30 04:53:26;;;;;;;24.77;22.17;;;;;;;4.65;100.00;102165.38;4932424;28;20031;-73
2023/04/30 04:55:51;;;;;;;24.35;21.83;;;;;;;4.66;100.00;102162.69;4900525;28;20197;-73
2023/04/30 04:58:16;;;;;;;24.88;22.25;;;;;;;4.69;100.00;102169.75;4902560;29;20025;-74
2023/04/30 05:00:43;;;;;;;24.58;21.90;;;;;;;4.72;100.00;102172.34;4901986;28;20126;-73
2023/04/30 05:03:09;;;;;;;27.02;23.55;;;;;;;4.71;100.00;102166.19;4902217;28;20047;-74
2023/04/30 05:05:34;;;;;;;23.95;21.48;;;;;;;4.74;100.00;102163.53;4915908;28;20036;-74
2023/04/30 05:08:00;;;;;;;28.10;23.85;;;;;;;4.75;100.00;102164.41;4913655;28;20036;-74
2023/04/30 05:10:25;;;;;;;25.38;22.75;;;;;;;4.71;100.00;102158.28;4910398;28;20070;-72
2023/04/30 05:12:51;;;;;;;27.52;23.38;;;;;;;4.80;100.00;102161.75;4901797;28;20032;-72
2023/04/30 05:15:16;;;;;;;25.77;23.02;;;;;;;4.87;100.00;102166.09;4898770;28;20264;-73
2023/04/30 05:17:41;;;;;;;26.15;23.38;;;;;;;4.91;100.00;102165.19;4908681;28;20507;-73
2023/04/30 05:20:08;;;;;;;26.42;23.63;;;;;;;4.99;100.00;102163.41;4899902;28;20028;-73
2023/04/30 05:22:33;;;;;;;27.60;23.95;;;;;;;5.02;100.00;102160.75;4907038;28;20036;-74
2023/04/30 05:24:59;;;;;;;27.60;24.52;;;;;;;5.10;100.00;102158.03;4901244;28;20582;-73
2023/04/30 05:27:25;;;;;;;27.48;24.58;;;;;;;5.22;100.00;102152.66;4907014;28;20444;-73
2023/04/30 05:29:51;;;;;;;27.27;24.45;;;;;;;5.32;100.00;102153.47;4893766;28;20047;-74
2023/04/30 05:32:16;;;;;;;26.90;23.35;;;;;;;5.49;100.00;102155.06;4915133;28;20088;-72
2023/04/30 05:34:41;;;;;;;26.05;23.30;;;;;;;5.59;100.00;102153.22;4914823;28;20478;-72
2023/04/30 05:37:07;;;;;;;26.40;23.58;;;;;;;5.75;100.00;102154.81;4930076;28;20114;-73
2023/04/30 05:39:32;;;;;;;23.95;21.35;;;;;;;5.87;100.00;102156.47;4901087;29;20024;-74
2023/04/30 05:41:58;;;;;;;24.25;21.75;;;;;;;6.08;100.00;102160.69;4904722;29;20512;-73
2023/04/30 05:44:23;;;;;;;24.60;21.90;;;;;;;6.26;100.00;102156.06;4911586;28;20032;-72
2023/04/30 05:46:49;;;;;;;22.77;20.48;;;;;;;6.40;100.00;102162.97;4921583;28;20035;-73
2023/04/30 05:49:14;;;;;;;23.23;20.77;;;;;;;6.52;100.00;102156.66;4913478;28;20662;-74
2023/04/30 05:51:39;;;;;;;20.92;18.83;;;;;;;6.70;100.00;102166.09;4905422;28;20035;-73
2023/04/30 05:54:05;;;;;;;21.42;19.13;;;;;;;6.83;100.00;102158.88;4920912;28;20477;-74
2023/04/30 05:56:30;;;;;;;20.15;18.05;;;;;;;7.01;100.00;102163.00;4902796;29;20095;-75
2023/04/30 05:58:55;;;;;;;19.25;17.30;;;;;;;7.23;100.00;102165.31;4905891;28;20028;-74
2023/04/30 06:01:22;;;;;;;19.48;17.58;;;;;;;7.31;100.00;102159.88;4900711;28;20028;-73
2023/04/30 06:03:47;;;;;;;19.63;16.27;;;;;;;7.54;100.00;102163.91;4910655;28;20036;-74
2023/04/30 06:06:12;;;;;;;17.75;15.77;;;;;;;7.76;100.00;102154.69;4907911;28;20029;-74
2023/04/30 06:08:40;;;;;;;18.13;16.27;;;;;;;7.85;100.00;102156.28;4905010;28;20118;-73
2023/04/30 06:11:06;;;;;;;16.55;14.85;;;;;;;7.98;100.00;102148.09;4913731;28;20108;-73
2023/04/30 06:13:31;;;;;;;16.42;14.80;;;;;;;8.18;100.00;102150.31;4903276;28;20127;-73
2023/04/30 06:15:57;;;;;;;16.48;14.88;;;;;;;8.30;100.00;102151.88;4905533;28;20110;-74
2023/04/30 06:18:22;;;;;;;18.25;14.77;;;;;;;8.60;100.00;102147.72;4910574;28;20086;-74
2023/04/30 06:20:47;;;;;;;15.07;13.60;;;;;;;8.74;100.00;102150.09;4914336;28;20028;-73
2023/04/30 06:23:13;;;;;;;15.00;13.40;;;;;;;8.91;100.00;102149.69;4916712;28;20090;-74
2023/04/30 06:25:38;;;;;;;16.60;14.30;;;;;;;9.07;100.00;102150.19;4907195;28;20078;-73
2023/04/30 06:28:04;;;;;;;16.42;14.43;;;;;;;9.17;100.00;102149.09;4917308;28;20375;-74
2023/04/30 06:30:30;;;;;;;15.48;13.30;;;;;;;9.29;100.00;102150.56;4902729;28;20036;-73
2023/04/30 06:32:56;;;;;;;15.27;13.70;;;;;;;9.43;99.90;102148.44;4905214;28;20030;-73
2023/04/30 06:35:21;;;;;;;15.65;13.98;;;;;;;9.43;97.42;102146.63;4904572;29;20409;-73
2023/04/30 06:37:47;;;;;;;15.82;13.48;;;;;;;9.56;97.74;102149.84;4906334;28;20119;-73
2023/04/30 06:40:12;;;;;;;16.02;12.98;;;;;;;9.67;96.13;102147.81;4904500;29;20048;-73
2023/04/30 06:42:38;;;;;;;14.70;13.20;;;;;;;9.78;96.07;102149.28;4914472;28;20019;-73
2023/04/30 06:45:05;;;;;;;15.50;13.07;;;;;;;9.84;94.39;102147.34;4907088;28;20408;-73
2023/04/30 06:47:33;;;;;;;14.50;13.10;;;;;;;9.98;93.11;102146.97;4912556;28;20040;-74
2023/04/30 06:50:02;;;;;;;15.82;14.23;;;;;;;10.11;92.43;102147.50;4908812;28;20386;-74
2023/04/30 06:52:27;;;;;;;15.07;13.65;;;;;;;10.17;91.45;102148.22;4903173;28;20124;-73
2023/04/30 06:54:54;;;;;;;15.25;13.68;;;;;;;10.34;92.09;102157.53;4911140;28;20281;-73
2023/04/30 06:57:19;;;;;;;14.90;13.45;;;;;;;10.62;90.65;102155.81;4912200;28;20044;-74
2023/04/30 06:59:44;;;;;;;15.10;13.23;;;;;;;10.87;89.91;102161.25;4937757;28;20055;-72
2023/04/30 07:02:10;;;;;;;14.60;13.20;;;;;;;11.10;88.94;102151.66;4908171;28;20055;-73
2023/04/30 07:04:35;;;;;;;13.98;12.50;;;;;;;11.39;86.56;102167.56;4905362;28;20047;-74
2023/04/30 07:07:01;;;;;;;13.68;12.30;;;;;;;11.47;86.34;102162.84;4902786;28;20402;-72
2023/04/30 07:09:27;;;;;;;14.05;12.65;;;;;;;11.72;84.79;102154.00;4911712;28;20032;-73
2023/04/30 07:11:53;;;;;;;14.07;12.45;;;;;;;11.59;83.82;102126.91;4918883;28;20512;-72
2023/04/30 07:14:20;;;;;;;13.98;12.55;;;;;;;12.02;82.53;102154.75;4934674;28;20024;-73
2023/04/30 07:16:45;;;;;;;14.07;12.70;;;;;;;12.40;81.54;102147.13;4923924;28;20044;-74
2023/04/30 07:19:10;;;;;;;14.13;12.52;;;;;;;12.92;79.64;102153.13;4919062;28;20040;-73
2023/04/30 07:21:36;;;;;;;13.45;12.15;;;;;;;13.14;77.32;102145.13;4905905;28;20503;-73
2023/04/30 07:24:01;;;;;;;15.45;12.52;;;;;;;13.37;76.14;102149.53;4911402;28;20531;-71
2023/04/30 07:26:27;;;;;;;12.70;11.40;;;;;;;13.65;75.76;102152.78;4912110;28;20056;-73
2023/04/30 07:28:52;;;;;;;14.77;12.23;;;;;;;13.95;73.53;102155.91;4909504;28;20032;-72
2023/04/30 07:31:18;;;;;;;12.68;11.48;;;;;;;14.03;70.94;102150.22;4904031;28;20508;-74
2023/04/30 07:33:43;;;;;;;13.30;11.98;;;;;;;14.14;71.05;102139.94;4901478;28;20035;-74
2023/04/30 07:36:10;;;;;;;12.85;11.02;;;;;;;14.52;69.79;102139.13;4912786;28;20047;-72
2023/04/30 07:38:35;;;;;;;12.15;11.05;;;;;;;15.10;67.77;102147.06;4923443;28;20037;-73
2023/04/30 07:41:01;;;;;;;16.85;14.13;;;;;;;15.37;66.91;102151.03;4925995;28;20027;-73
2023/04/30 07:43:27;;;;;;;12.27;11.05;;;;;;;15.45;65.83;102145.31;4913804;28;20174;-73
2023/04/30 07:45:53;;;;;;;12.07;10.88;;;;;;;15.73;63.53;102139.44;4902624;28;20030;-74
2023/04/30 07:48:19;;;;;;;12.82;11.40;;;;;;;16.13;63.64;102140.00;4897174;28;20119;-71
2023/04/30 07:50:47;;;;;;;12.75;11.05;;;;;;;16.30;61.48;102142.66;4902781;28;20071;-73
2023/04/30 07:53:12;;;;;;;12.40;10.80;;;;;;;16.42;60.45;102147.34;4917559;28;20040;-73
2023/04/30 07:55:38;;;;;;;14.07;11.32;;;;;;;16.96;59.99;102144.38;4904421;28;20040;-72
2023/04/30 07:58:03;;;;;;;12.50;10.55;;;;;;;17.46;58.34;102134.31;4902793;29;20016;-73
2023/04/30 08:00:30;;;;;;;12.27;11.07;;;;;;;17.97;57.01;102142.94;4902935;28;20024;-73
2023/04/30 08:02:55;;;;;;;11.85;10.75;;;;;;;18.61;55.23;102147.88;4912499;29;20481;-73
2023/04/30 08:05:20;;;;;;;11.35;10.25;;;;;;;18.79;52.83;102142.28;4910480;28;20038;-72
2023/04/30 08:07:46;;;;;;;11.35;10.15;;;;;;;18.90;52.52;102146.00;4902596;28;20234;-72
2023/04/30 08:10:11;;;;;;;11.32;10.23;;;;;;;19.08;51.75;102151.16;4907127;28;20503;-73
2023/04/30 08:12:37;;;;;;;10.90;9.80;;;;;;;19.05;50.80;102149.53;4901504;28;20215;-73
2023/04/30 08:15:04;;;;;;;10.23;9.23;;;;;;;19.50;51.65;102152.81;4901030;28;20032;-75
2023/04/30 08:17:30;;;;;;;10.75;9.65;;;;;;;19.81;48.88;102145.34;4917153;28;20037;-72
2023/04/30 08:19:56;;;;;;;11.55;10.45;;;;;;;20.08;48.94;102137.16;4899735;28;20036;-73
2023/04/30 08:22:22;;;;;;;10.15;9.13;;;;;;;20.36;47.67;102139.63;4900334;28;20109;-72
2023/04/30 08:24:48;;;;;;;10.57;9.50;;;;;;;20.47;46.76;102148.81;4901160;28;20500;-73
2023/04/30 08:27:13;;;;;;;11.32;9.70;;;;;;;20.43;46.72;102147.28;4901603;28;20024;-72
2023/04/30 08:29:38;;;;;;;11.38;9.18;;;;;;;20.78;45.31;102150.19;4899521;28;20082;-73
2023/04/30 08:32:04;;;;;;;14.00;9.35;;;;;;;20.75;45.94;102148.56;4900416;28;20134;-73
2023/04/30 08:34:30;;;;;;;10.57;9.45;;;;;;;20.87;44.87;102152.22;4902105;28;20488;-74
2023/04/30 08:36:55;;;;;;;10.45;9.45;;;;;;;20.94;44.99;102145.34;4902035;29;20106;-73
2023/04/30 08:39:21;;;;;;;9.70;8.75;;;;;;;21.29;43.37;102145.44;4911319;28;20036;-73
2023/04/30 08:41:52;;;;;;;12.20;9.20;;;;;;;21.53;43.10;102150.88;4902393;29;20457;-72
2023/04/30 08:44:20;;;;;;;9.45;8.57;;;;;;;21.64;43.19;102147.31;4916159;28;20792;-73
2023/04/30 08:46:46;;;;;;;10.27;9.35;;;;;;;22.21;42.25;102138.34;4903891;28;20029;-72
2023/04/30 08:49:12;;;;;;;9.43;8.55;;;;;;;22.30;40.57;102131.31;4907364;28;20039;-74
2023/04/30 08:51:37;;;;;;;9.80;8.82;;;;;;;22.66;40.58;102140.16;4903097;28;20032;-73
2023/04/30 08:54:03;;;;;;;9.25;8.35;;;;;;;23.38;39.66;102145.09;4909177;28;20031;-72
2023/04/30 08:56:30;;;;;;;9.13;8.23;;;;;;;23.43;37.73;102140.13;4909296;28;20669;-73
2023/04/30 08:58:55;;;;;;;8.43;7.57;;;;;;;23.48;36.90;102151.47;4902975;28;20090;-73
2023/04/30 09:01:22;;;;;;;9.75;8.77;;;;;;;23.69;37.52;102143.38;4913890;28;20036;-73
2023/04/30 09:03:48;;;;;;;10.15;8.73;;;;;;;23.61;36.75;102146.69;4903024;28;20028;-73
2023/04/30 09:06:16;;;;;;;9.20;8.40;;;;;;;23.72;36.51;102135.81;4909079;28;20028;-75
2023/04/30 09:08:49;;;;;;;9.00;8.10;;;;;;;23.51;36.65;102133.03;4907102;28;20028;-74
2023/04/30 09:11:26;;;;;;;8.88;7.97;;;;;;;24.44;38.06;102128.63;4900720;29;20224;-74
2023/04/30 09:13:54;;;;;;;9.60;8.60;;;;;;;24.37;35.33;102128.31;4903626;28;20028;-75
2023/04/30 09:16:21;;;;;;;11.00;9.90;;;;;;;25.04;35.23;102121.31;4907915;28;20067;-73
2023/04/30 09:18:47;;;;;;;9.48;8.02;;;;;;;25.48;34.38;102125.41;4932805;28;20048;-74
2023/04/30 09:21:12;;;;;;;11.10;9.40;;;;;;;25.96;33.71;102126.34;4903387;28;20149;-73
2023/04/30 09:23:54;;;;;;;9.60;8.55;;;;;;;26.99;34.65;102128.91;4904055;28;20028;-73
2023/04/30 09:26:26;;;;;;;8.23;7.43;;;;;;;27.13;30.90;102130.31;4901048;28;20040;-73
2023/04/30 09:28:56;;;;;;;7.13;6.53;;;;;;;27.04;31.01;102132.03;4906048;28;20110;-74
2023/04/30 09:31:23;;;;;;;6.88;6.05;;;;;;;26.63;29.45;102124.38;4901481;28;20224;-74
2023/04/30 09:33:49;;;;;;;6.93;6.22;;;;;;;26.78;30.02;102128.34;4902643;28;20066;-72
2023/04/30 09:36:15;;;;;;;6.07;5.47;;;;;;;27.39;28.92;102124.06;4905131;28;20039;-73
2023/04/30 09:38:41;;;;;;;6.13;5.63;;;;;;;28.16;28.41;102128.75;4928036;28;20098;-74
2023/04/30 09:41:22;;;;;;;5.20;4.70;;;;;;;27.87;30.08;102125.47;4901782;28;20032;-73
2023/04/30 09:43:47;;;;;;;6.22;5.45;;;;;;;28.22;28.36;102125.38;4926855;28;20028;-73
2023/04/30 09:46:13;;;;;;;6.95;6.35;;;;;;;28.22;27.30;102130.00;4907880;28;20047;-74
2023/04/30 09:48:40;;;;;;;6.75;6.15;;;;;;;28.20;27.99;102130.13;4918723;28;20130;-73
2023/04/30 09:51:06;;;;;;;7.50;6.57;;;;;;;28.68;27.05;102122.34;4914505;28;20058;-73
2023/04/30 09:53:36;;;;;;;7.80;7.07;;;;;;;28.87;27.42;102126.69;4904556;28;20221;-73
2023/04/30 09:56:07;;;;;;;6.40;5.82;;;;;;;28.59;26.05;102126.91;4902495;28;20137;-73
2023/04/30 09:58:37;;;;;;;6.03;5.43;;;;;;;28.84;26.54;102116.03;4917981;28;20031;-74
2023/04/30 10:01:06;;;;;;;5.75;5.07;;;;;;;28.57;26.04;102120.75;4910909;28;20032;-74
2023/04/30 10:03:32;;;;;;;5.45;4.90;;;;;;;29.16;26.20;102123.50;4904083;28;20024;-74
2023/04/30 10:05:58;;;;;;;5.45;4.95;;;;;;;29.34;25.26;102124.22;4907400;28;20039;-76
2023/04/30 10:08:30;;;;;;;6.05;5.50;;;;;;;28.54;26.24;102115.59;4905082;28;20397;-74
2023/04/30 10:11:04;;;;;;;5.80;5.30;;;;;;;28.67;27.33;102115.13;4912280;28;20035;-73
2023/04/30 10:13:48;;;;;;;5.30;4.80;;;;;;;29.19;27.13;102113.06;4901115;28;20118;-74
2023/04/30 10:16:23;;;;;;;5.50;4.72;;;;;;;29.11;25.26;102101.25;4920248;28;20497;-72
2023/04/30 10:18:51;;;;;;;5.95;4.18;;;;;;;29.20;25.33;102113.94;4901147;28;20027;-74
2023/04/30 10:21:20;;;;;;;4.22;3.65;;;;;;;29.69;24.61;102109.34;4903984;28;20029;-73
2023/04/30 10:23:46;;;;;;;4.70;4.30;;;;;;;30.49;24.28;102102.97;4905212;28;20039;-73
2023/04/30 10:26:15;;;;;;;6.25;5.70;;;;;;;30.39;23.57;102105.94;4905834;28;20032;-71
2023/04/30 10:28:41;;;;;;;6.93;6.25;;;;;;;29.74;24.73;102095.94;4904570;28;20102;-73
2023/04/30 10:31:10;;;;;;;5.75;5.22;;;;;;;29.98;24.97;102094.19;4916688;28;20095;-73
2023/04/30 10:33:59;;;;;;;6.45;5.22;;;;;;;30.43;25.25;102081.69;4915337;28;20026;-73
2023/04/30 10:36:49;;;;;;;5.47;4.97;;;;;;;30.27;24.68;102086.22;4906098;29;20123;-73
2023/04/30 10:39:22;;;;;;;6.35;5.72;;;;;;;30.62;24.85;102091.38;4900523;28;20032;-72
2023/04/30 10:41:48;;;;;;;6.90;6.18;;;;;;;30.24;24.26;102077.47;4916863;28;20044;-73
2023/04/30 10:44:14;;;;;;;7.75;6.95;;;;;;;30.41;24.49;102081.88;4904365;28;20040;-72
2023/04/30 10:46:40;;;;;;;7.88;7.10;;;;;;;30.81;24.43;102079.09;4925789;28;20036;-73
2023/04/30 10:49:06;;;;;;;7.28;6.68;;;;;;;31.32;23.98;102084.97;4904412;28;20436;-73
2023/04/30 10:51:48;;;;;;;7.07;6.38;;;;;;;31.99;24.58;102074.00;4903306;28;20058;-73
2023/04/30 10:54:18;;;;;;;7.38;6.35;;;;;;;32.31;23.43;102074.63;4903476;28;20024;-72
2023/04/30 10:56:45;;;;;;;6.80;6.20;;;;;;;33.31;22.47;102065.59;4934911;28;20122;-73
2023/04/30 10:59:11;;;;;;;7.50;6.80;;;;;;;33.19;22.07;102062.53;4904473;29;20071;-74
2023/04/30 11:01:57;;;;;;;5.30;4.82;;;;;;;33.47;22.17;102051.56;4903727;28;20036;-73
2023/04/30 11:04:23;;;;;;;6.03;5.20;;;;;;;32.35;21.48;102063.03;4904560;28;20032;-72
2023/04/30 11:06:51;;;;;;;5.10;4.70;;;;;;;32.35;22.02;102060.28;4905421;28;20459;-71
2023/04/30 11:09:16;;;;;;;6.75;6.05;;;;;;;32.35;21.92;102052.00;4902273;28;20395;-72
2023/04/30 11:11:46;;;;;;;7.07;6.40;;;;;;;31.29;22.78;102055.91;4906869;28;20578;-74
2023/04/30 11:14:19;;;;;;;6.65;5.78;;;;;;;29.33;24.83;102056.69;4902003;28;20147;-73
2023/04/30 11:16:47;;;;;;;;;;;;;;;30.69;26.60;102046.53;4926909;28;20033;-72